Cordova, AK (99574)

12:19 AM AKDT on November 01, 2014 (GMT -0800)
Cordova-Smith | Change Station
CLOSE
Current Station
Airport
Location: Cordova,
Elevation: 43 ft
Nearby Weather Stations

Elev 43 ft 60.49 °N, 145.45 °W | Updated 26 minutes ago

Overcast
Overcast
40 °F
Feels Like 34 °F
N
8
Wind Variable Wind from East

Today
High -- | Low -- °F
--% Chance of Precip.
Yesterday
High -- | Low -- °F
Precip. -- in
9:08 AM 5:43 PM
Waxing Gibbous, 64% visible
Pressure 29.23 in
Visibility 10.0 miles
Clouds Few 3200 ft
Mostly Cloudy 4700 ft
Overcast 6000 ft
Windchill 34 °F
Dew Point 32 °F
Humidity 73%
Rainfall 0.03 in
Snow Depth Not available.
UV 0 out of 12
Pollen Not available.
Air Quality Not available.
Flu Activity Not available.
METAR PACV 010753Z 09007KT 10SM FEW032 BKN047 OVC060 04/00 A2922 RMK AO2 RAB0655E04 SLP896 P0000 T00440000

More Conditions Fewer Conditions

Pressure 29.23 in
Visibility 10.0 miles
Clouds Few 3200 ft
Mostly Cloudy 4700 ft
Overcast 6000 ft
Windchill 34 °F
Dew Point 32 °F
Humidity 73%
Rainfall 0.03 in
Snow Depth Not available.
UV 0 out of 12
Pollen Not available.
Air Quality Not available.
Flu Activity Not available.
METAR PACV 010753Z 09007KT 10SM FEW032 BKN047 OVC060 04/00 A2922 RMK AO2 RAB0655E04 SLP896 P0000 T00440000

More Conditions Fewer Conditions

10-Day Weather Forecast

Almanac

Astronomy

Nov. 01, 2014 Rise Set
Actual Time
Civil Twilight
Nautical Twilight
Astronomical Twilight
Moon
Length of Visible Light
Length of Day
Tomorrow will be .
, % of the Moon is Illuminated

Today's Extremes

State Highs State Lows

Community

WunderPhotos

Upload Photos

1,766,866 photos uploaded!

WunderBlogs® & News

Nearby

Air Quality

  Air Quality AQ Index Pollutant
Not available.

Snow Depth

Station Depth Elevation

Earthquake Activity

City Distance Mag. Time & Date
Minimum magnitude displayed is 2.5.

Coastal Water Temperatures

Place Temperature

Nearby Weather Stations